Time;durP1;ratioP1;P1;durP2;ratioP2;P2;SDS_P1;SDS_P2;PMS_P1;PMS_P2;Temp;Humidity;BMP_temperature;BMP_pressure;BME280_temperature;BME280_humidity;BME280_pressure;Samples;Min_cycle;Max_cycle;Signal;HPM_P1;HPM_P2
2022/06/07 00:03:58;;;;;;;0.95;0.30;;;;;;;21.01;42.48;101331.66;16145659;19;130348;-57
2022/06/07 00:09:20;;;;;;;0.73;0.30;;;;;;;21.01;42.62;101325.28;16143328;19;129716;-57
2022/06/07 00:14:42;;;;;;;0.35;0.20;;;;;;;21.00;42.68;101323.59;16140022;19;129632;-58
2022/06/07 00:20:05;;;;;;;1.25;0.32;;;;;;;20.99;42.85;101317.16;16142942;19;129481;-57
2022/06/07 00:25:29;;;;;;;1.05;0.30;;;;;;;20.98;42.49;101312.72;16142662;19;130461;-56
2022/06/07 00:30:52;;;;;;;1.03;0.20;;;;;;;20.98;42.81;101317.44;16141061;19;129673;-57
2022/06/07 00:36:15;;;;;;;0.40;0.30;;;;;;;20.97;42.88;101310.19;16142242;19;130108;-57
2022/06/07 00:41:37;;;;;;;0.63;0.30;;;;;;;20.95;42.73;101307.66;16144633;19;129347;-57
2022/06/07 00:47:12;;;;;;;0.80;0.30;;;;;;;20.95;42.80;101301.25;16141584;19;129566;-57
2022/06/07 00:52:35;;;;;;;0.97;0.20;;;;;;;20.93;42.67;101290.38;16138298;19;129671;-55
2022/06/07 00:57:57;;;;;;;0.10;0.10;;;;;;;20.92;42.94;101291.47;16138806;19;129043;-57
2022/06/07 01:03:20;;;;;;;0.98;0.20;;;;;;;20.90;42.61;101285.31;16139350;19;129336;-56
2022/06/07 01:14:22;;;;;;;0.20;0.20;;;;;;;20.89;42.75;101280.84;16142894;19;129096;-56
2022/06/07 01:19:44;;;;;;;1.17;0.40;;;;;;;20.88;42.52;101277.25;16139163;19;129260;-57
2022/06/07 01:25:07;;;;;;;0.30;0.17;;;;;;;20.88;42.55;101282.78;16140363;19;129429;-57
2022/06/07 01:30:29;;;;;;;0.28;0.20;;;;;;;20.86;42.72;101273.88;16138479;19;129946;-58
2022/06/07 01:36:06;;;;;;;0.50;0.20;;;;;;;20.86;42.53;101268.31;16142355;19;130792;-57
2022/06/07 01:47:12;;;;;;;0.57;0.30;;;;;;;20.84;42.51;101259.38;16139971;19;129546;-61
2022/06/07 01:52:36;;;;;;;0.40;0.30;;;;;;;20.83;42.67;101246.56;16135234;19;129002;-58
2022/06/07 01:58:00;;;;;;;0.60;0.28;;;;;;;20.82;42.47;101250.44;16131024;19;131350;-56
2022/06/07 02:03:25;;;;;;;0.22;0.20;;;;;;;20.82;42.78;101247.66;16136588;19;129466;-58
2022/06/07 02:08:47;;;;;;;0.30;0.20;;;;;;;20.81;42.66;101248.75;16133824;19;129365;-56
2022/06/07 02:14:10;;;;;;;0.60;0.30;;;;;;;20.81;42.39;101247.91;16134604;19;130328;-59
2022/06/07 02:19:32;;;;;;;0.10;0.10;;;;;;;20.80;42.67;101241.50;16137286;19;129062;-55
2022/06/07 02:24:53;;;;;;;0.28;0.20;;;;;;;20.79;42.41;101239.84;16135643;19;129768;-57
2022/06/07 02:30:16;;;;;;;0.25;0.20;;;;;;;20.80;42.50;101240.66;16133865;19;129536;-57
2022/06/07 02:35:41;;;;;;;0.28;0.20;;;;;;;20.77;42.48;101233.69;16136420;19;129362;-58
2022/06/07 02:41:07;;;;;;;0.90;0.20;;;;;;;20.78;42.57;101240.06;16137345;19;129438;-57
2022/06/07 02:46:29;;;;;;;0.20;0.10;;;;;;;20.77;42.96;101241.16;16135765;19;128849;-57
2022/06/07 02:51:51;;;;;;;0.80;0.25;;;;;;;20.75;42.86;101227.50;16126363;19;128899;-59
2022/06/07 02:57:27;;;;;;;0.60;0.20;;;;;;;20.73;42.41;101227.75;16134330;19;129001;-57
2022/06/07 03:02:49;;;;;;;0.13;0.10;;;;;;;20.74;42.79;101231.38;16132328;19;129231;-57
2022/06/07 03:08:14;;;;;;;0.38;0.13;;;;;;;20.72;42.94;101237.19;16131601;19;129670;-56
2022/06/07 03:13:36;;;;;;;0.17;0.10;;;;;;;20.72;42.74;101244.66;16129781;19;129249;-57
2022/06/07 03:18:58;;;;;;;1.65;0.20;;;;;;;20.72;42.51;101244.66;16133959;19;130085;-57
2022/06/07 03:24:20;;;;;;;0.10;0.10;;;;;;;20.71;42.60;101242.97;16142963;19;129208;-57
2022/06/07 03:29:42;;;;;;;1.23;0.22;;;;;;;20.72;42.81;101247.44;16142272;19;129685;-58
2022/06/07 03:35:04;;;;;;;0.68;0.13;;;;;;;20.69;42.87;101254.38;16146778;19;129038;-57
2022/06/07 03:40:44;;;;;;;1.95;0.20;;;;;;;20.68;42.63;101255.47;16146414;19;129644;-57
2022/06/07 03:46:12;;;;;;;0.47;0.25;;;;;;;20.69;42.67;101256.28;16146505;19;129505;-57
2022/06/07 03:51:34;;;;;;;0.10;0.10;;;;;;;20.67;42.69;101262.13;16144417;19;128979;-56
2022/06/07 03:56:56;;;;;;;0.90;0.13;;;;;;;20.68;42.61;101262.94;16145981;19;129853;-57
2022/06/07 04:02:18;;;;;;;0.77;0.20;;;;;;;20.66;42.67;101262.38;16144193;19;129432;-57
2022/06/07 04:13:22;;;;;;;0.28;0.10;;;;;;;20.65;42.85;101269.84;16140184;19;130088;-57
2022/06/07 04:18:44;;;;;;;0.35;0.20;;;;;;;20.64;42.91;101267.34;16142134;19;129217;-56
2022/06/07 04:24:06;;;;;;;0.60;0.20;;;;;;;20.63;42.43;101268.44;16142849;19;129401;-57
2022/06/07 04:29:28;;;;;;;0.40;0.30;;;;;;;20.63;42.63;101265.66;16141732;19;129548;-57
2022/06/07 04:34:50;;;;;;;0.75;0.20;;;;;;;20.63;42.45;101262.88;16138759;19;129274;-55
2022/06/07 04:40:13;;;;;;;0.30;0.20;;;;;;;20.62;42.50;101272.31;16141247;19;129281;-57
2022/06/07 04:45:37;;;;;;;0.40;0.20;;;;;;;20.61;42.70;101268.69;16139295;19;130184;-57
2022/06/07 04:51:05;;;;;;;0.55;0.25;;;;;;;20.61;42.65;101271.47;16142031;19;130314;-55
2022/06/07 04:56:32;;;;;;;0.28;0.10;;;;;;;20.59;42.39;101268.94;16143321;19;129664;-59
2022/06/07 05:01:54;;;;;;;0.40;0.20;;;;;;;20.58;42.60;101272.81;16140144;19;129272;-58
2022/06/07 05:07:16;;;;;;;0.10;0.10;;;;;;;20.59;42.44;101270.88;16134849;19;129357;-57
2022/06/07 05:12:38;;;;;;;0.60;0.20;;;;;;;20.59;42.80;101274.50;16132396;19;129284;-58
2022/06/07 05:18:00;;;;;;;0.20;0.15;;;;;;;20.59;42.38;101268.94;16139135;19;129409;-57
2022/06/07 05:23:23;;;;;;;0.55;0.30;;;;;;;20.59;42.36;101279.22;16133986;19;129099;-55
2022/06/07 05:28:44;;;;;;;11.07;0.57;;;;;;;20.60;42.35;101276.19;16133228;19;130619;-57
2022/06/07 05:34:06;;;;;;;0.60;0.28;;;;;;;20.68;42.61;101274.06;16132379;19;129620;-56
2022/06/07 05:39:30;;;;;;;0.82;0.30;;;;;;;20.75;42.22;101267.28;16136944;19;130957;-56
2022/06/07 05:44:52;;;;;;;1.00;0.30;;;;;;;20.84;42.19;101267.69;16134264;19;130500;-55
2022/06/07 05:50:14;;;;;;;1.45;0.20;;;;;;;20.87;42.13;101270.00;16134339;19;129150;-54
2022/06/07 05:55:35;;;;;;;3.17;0.32;;;;;;;20.93;41.93;101270.91;16139541;19;129376;-55
2022/06/07 06:00:57;;;;;;;2.10;0.30;;;;;;;20.96;42.25;101289.03;16138698;19;129511;-53
2022/06/07 06:06:19;;;;;;;0.93;0.20;;;;;;;21.00;41.77;101290.22;16131797;19;129185;-54
2022/06/07 06:11:41;;;;;;;0.85;0.30;;;;;;;21.02;41.79;101277.72;16135659;19;129416;-56
2022/06/07 06:17:03;;;;;;;1.90;0.32;;;;;;;21.05;41.70;101288.34;16136798;19;129435;-56
2022/06/07 06:22:26;;;;;;;2.35;0.30;;;;;;;21.06;41.84;101278.06;16132189;19;129138;-56
2022/06/07 06:27:48;;;;;;;1.13;0.30;;;;;;;21.07;42.11;101279.75;16137418;19;129950;-56
2022/06/07 06:33:12;;;;;;;1.20;0.30;;;;;;;21.06;42.11;101280.84;16130376;19;129356;-56
2022/06/07 06:38:34;;;;;;;0.95;0.30;;;;;;;21.05;41.54;101282.78;16137204;19;130104;-55
2022/06/07 06:44:00;;;;;;;2.53;0.40;;;;;;;21.06;41.63;101283.63;16135695;19;130044;-56
2022/06/07 06:49:22;;;;;;;2.47;0.30;;;;;;;21.06;41.90;101280.84;16128038;19;129197;-53
2022/06/07 06:54:44;;;;;;;3.17;0.32;;;;;;;21.06;41.48;101283.63;16126877;19;129210;-57
2022/06/07 07:00:08;;;;;;;0.73;0.30;;;;;;;21.06;41.85;101289.19;16144845;19;129694;-57
2022/06/07 07:05:31;;;;;;;2.22;0.20;;;;;;;21.09;41.73;101294.25;16142961;19;129178;-56
2022/06/07 07:11:09;;;;;;;0.47;0.30;;;;;;;21.14;41.78;101291.56;16151462;19;128906;-57
2022/06/07 07:16:33;;;;;;;0.68;0.30;;;;;;;21.18;41.60;101291.88;16148573;19;128903;-54
2022/06/07 07:21:55;;;;;;;1.55;0.20;;;;;;;21.22;41.46;101291.09;16147104;19;128946;-55
2022/06/07 07:27:18;;;;;;;1.98;0.25;;;;;;;21.26;41.32;101296.16;16150368;19;132168;-56
2022/06/07 07:32:40;;;;;;;1.15;0.30;;;;;;;21.29;41.29;101301.22;16146621;19;129664;-56
2022/06/07 07:38:02;;;;;;;1.38;0.30;;;;;;;21.33;41.52;101288.47;16148289;19;130733;-56
2022/06/07 07:43:24;;;;;;;1.17;0.30;;;;;;;21.35;41.45;101291.84;16149180;19;129341;-56
2022/06/07 07:48:46;;;;;;;0.77;0.20;;;;;;;21.34;41.55;101287.38;16145037;19;129019;-55
2022/06/07 07:54:10;;;;;;;0.90;0.30;;;;;;;21.35;41.44;101286.28;16143483;19;129191;-56
2022/06/07 07:59:32;;;;;;;2.92;0.20;;;;;;;21.33;41.58;101283.75;16148279;19;129417;-56
2022/06/07 08:04:54;;;;;;;0.50;0.30;;;;;;;21.32;41.39;101286.78;16149063;19;129575;-56
2022/06/07 08:10:16;;;;;;;0.70;0.28;;;;;;;21.31;41.71;101282.31;16146753;19;129280;-57
2022/06/07 08:15:38;;;;;;;0.50;0.13;;;;;;;21.32;41.47;101282.06;16147861;19;129511;-56
2022/06/07 08:21:04;;;;;;;0.47;0.13;;;;;;;21.32;41.60;101275.66;16143355;19;129223;-55
2022/06/07 08:26:27;;;;;;;0.38;0.20;;;;;;;21.31;41.58;101291.53;16146465;19;129207;-56
2022/06/07 08:31:49;;;;;;;0.93;0.30;;;;;;;21.30;41.47;101278.69;16140275;19;129615;-56
2022/06/07 08:42:58;;;;;;;0.70;0.20;;;;;;;21.30;41.55;101273.13;16144677;19;130316;-57
2022/06/07 08:48:27;;;;;;;0.28;0.20;;;;;;;21.30;41.43;101284.28;16135889;19;128867;-56
2022/06/07 08:53:52;;;;;;;2.17;0.10;;;;;;;21.28;41.51;101274.50;16138504;19;129244;-57
2022/06/07 08:59:17;;;;;;;0.45;0.20;;;;;;;21.29;41.72;101281.75;16139184;19;129432;-56
2022/06/07 09:04:40;;;;;;;0.80;0.30;;;;;;;21.28;41.46;101274.50;16139115;19;129252;-55
2022/06/07 09:15:47;;;;;;;0.60;0.30;;;;;;;21.31;41.65;101263.69;16136074;19;132179;-53
2022/06/07 09:21:21;;;;;;;1.80;0.30;;;;;;;21.33;41.26;101263.44;16135851;19;129795;-56
2022/06/07 09:26:43;;;;;;;1.58;0.20;;;;;;;21.33;41.64;101269.00;16138447;19;129035;-53
2022/06/07 09:32:11;;;;;;;2.55;0.30;;;;;;;21.33;41.75;101260.63;16134771;19;129515;-56
2022/06/07 09:37:47;;;;;;;0.82;0.20;;;;;;;21.33;41.45;101269.84;16137871;19;129598;-57
2022/06/07 09:43:11;;;;;;;0.40;0.20;;;;;;;21.32;41.47;101282.06;16140099;19;129930;-56
2022/06/07 09:48:43;;;;;;;3.30;0.20;;;;;;;21.33;41.38;101266.22;16136201;19;129038;-54
2022/06/07 09:54:15;;;;;;;1.00;0.35;;;;;;;21.33;41.70;101260.63;16136142;19;128888;-56
2022/06/07 09:59:42;;;;;;;0.90;0.30;;;;;;;21.32;41.62;101258.94;16136819;19;129160;-55
2022/06/07 10:05:20;;;;;;;0.32;0.20;;;;;;;21.31;41.54;101258.13;16139498;19;129336;-56
2022/06/07 10:10:52;;;;;;;0.38;0.10;;;;;;;21.32;41.47;101259.81;16140115;19;129509;-55
2022/06/07 10:16:13;;;;;;;0.38;0.22;;;;;;;21.29;41.52;101249.19;16138410;19;130398;-54
2022/06/07 10:21:57;;;;;;;0.35;0.28;;;;;;;21.31;41.88;101247.00;16134895;19;129054;-55
2022/06/07 10:28:01;;;;;;;0.73;0.20;;;;;;;21.28;41.80;101255.03;16138127;19;128909;-55
2022/06/07 10:33:37;;;;;;;1.05;0.30;;;;;;;21.28;41.84;101253.06;16123813;19;129223;-54
2022/06/07 10:39:17;;;;;;;0.43;0.20;;;;;;;21.27;41.56;101250.56;16124190;19;129695;-54
2022/06/07 10:44:51;;;;;;;1.88;0.40;;;;;;;21.28;41.88;101255.03;16128203;19;131036;-56
2022/06/07 10:50:21;;;;;;;0.25;0.10;;;;;;;21.27;41.70;101251.38;16121826;19;131595;-56
2022/06/07 10:55:50;;;;;;;0.50;0.20;;;;;;;21.28;41.96;101255.03;16121343;19;129578;-56
2022/06/07 11:01:30;;;;;;;0.65;0.28;;;;;;;21.27;41.46;101245.81;16122517;19;129552;-56
2022/06/07 11:12:56;;;;;;;1.75;0.38;;;;;;;21.29;41.48;101238.06;16133404;19;131422;-56
2022/06/07 11:18:24;;;;;;;0.63;0.30;;;;;;;21.31;41.97;101243.34;16131128;19;129376;-55
2022/06/07 11:24:21;;;;;;;1.10;0.47;;;;;;;21.32;41.64;101251.47;16123160;19;129377;-55
2022/06/07 11:29:43;;;;;;;1.50;0.40;;;;;;;21.31;41.82;101247.00;16133882;19;129254;-56
2022/06/07 11:35:47;;;;;;;1.83;0.57;;;;;;;21.32;41.83;101245.91;16128507;19;130586;-56
2022/06/07 11:41:44;;;;;;;1.13;0.30;;;;;;;21.34;41.60;101245.63;16130357;19;129111;-56
2022/06/07 11:47:13;;;;;;;1.13;0.43;;;;;;;21.35;41.47;101247.31;16146426;19;129505;-56
2022/06/07 11:52:52;;;;;;;1.55;0.40;;;;;;;21.39;41.64;101247.63;16145741;19;129766;-54
2022/06/07 11:58:14;;;;;;;2.08;0.60;;;;;;;21.39;41.96;101242.94;16141661;19;129047;-54
2022/06/07 12:03:36;;;;;;;0.82;0.40;;;;;;;21.39;42.07;101240.16;16148807;19;129091;-56
2022/06/07 12:09:05;;;;;;;1.25;0.50;;;;;;;21.41;41.82;101237.94;16149014;19;130263;-55
2022/06/07 12:14:37;;;;;;;2.13;0.45;;;;;;;21.43;42.00;101240.47;16142701;19;129112;-57
2022/06/07 12:19:59;;;;;;;1.38;0.70;;;;;;;21.43;41.89;101232.94;16145463;19;129880;-56
2022/06/07 12:25:22;;;;;;;0.88;0.40;;;;;;;21.44;42.02;101226.28;16145330;19;129576;-56
2022/06/07 12:30:44;;;;;;;2.22;0.70;;;;;;;21.45;41.70;101230.75;16145448;19;129167;-56
2022/06/07 12:36:16;;;;;;;0.57;0.40;;;;;;;21.46;41.86;101221.31;16139968;19;129464;-56
2022/06/07 12:42:05;;;;;;;1.02;0.40;;;;;;;21.45;41.83;101219.63;16144883;19;130220;-56
2022/06/07 12:47:35;;;;;;;0.93;0.38;;;;;;;21.46;42.02;101214.91;16143912;19;129453;-54
2022/06/07 12:52:57;;;;;;;0.60;0.30;;;;;;;21.44;41.87;101208.75;16142426;19;129470;-56
2022/06/07 12:58:22;;;;;;;0.40;0.30;;;;;;;21.43;41.88;101213.47;16141808;19;128980;-56
2022/06/07 13:03:44;;;;;;;0.77;0.43;;;;;;;21.44;41.77;101206.78;16143300;19;130241;-54
2022/06/07 13:09:18;;;;;;;1.10;0.50;;;;;;;21.45;41.66;101197.34;16138290;19;129158;-53
2022/06/07 13:14:41;;;;;;;0.88;0.30;;;;;;;21.44;41.85;101190.09;16138004;19;129400;-54
2022/06/07 13:20:06;;;;;;;1.35;0.20;;;;;;;21.46;41.89;101198.22;16140408;19;129229;-56
2022/06/07 13:25:32;;;;;;;0.90;0.32;;;;;;;21.46;41.74;101179.56;16143838;19;129189;-56
2022/06/07 13:30:57;;;;;;;1.50;0.40;;;;;;;21.46;41.70;101171.19;16140080;19;129099;-55
2022/06/07 13:36:42;;;;;;;0.93;0.50;;;;;;;21.47;42.00;101167.31;16133599;19;128701;-55
2022/06/07 13:42:23;;;;;;;0.90;0.57;;;;;;;21.47;42.21;101161.75;16140104;19;129317;-55
2022/06/07 13:48:07;;;;;;;0.95;0.50;;;;;;;21.47;42.25;101158.97;16138444;19;130291;-54
2022/06/07 13:53:29;;;;;;;0.30;0.30;;;;;;;21.47;42.10;101150.63;16135740;19;129090;-54
2022/06/07 13:58:53;;;;;;;0.60;0.30;;;;;;;21.46;42.33;101154.50;16141576;19;129475;-57
2022/06/07 14:04:32;;;;;;;0.63;0.40;;;;;;;21.49;42.15;101155.94;16138598;19;129257;-56
2022/06/07 14:09:56;;;;;;;0.77;0.40;;;;;;;21.48;42.09;101151.44;16135261;19;129723;-55
2022/06/07 14:15:18;;;;;;;2.95;0.40;;;;;;;21.48;42.10;101146.72;16129184;19;129543;-56
2022/06/07 14:20:41;;;;;;;0.28;0.28;;;;;;;21.50;42.38;101138.13;16133305;19;129800;-56
2022/06/07 14:26:03;;;;;;;1.33;0.45;;;;;;;21.51;42.40;101145.41;16138427;19;129472;-56
2022/06/07 14:31:25;;;;;;;2.45;0.30;;;;;;;21.52;42.07;101144.28;16137225;19;130791;-56
2022/06/07 14:36:48;;;;;;;1.17;0.30;;;;;;;21.52;42.21;101134.03;16130926;19;129210;-56
2022/06/07 14:42:12;;;;;;;1.38;0.30;;;;;;;21.54;42.26;101130.97;16136402;19;128889;-56
2022/06/07 14:47:33;;;;;;;1.38;0.30;;;;;;;21.54;42.47;101138.50;16133372;19;131641;-56
2022/06/07 14:52:55;;;;;;;2.92;0.40;;;;;;;21.56;42.11;101125.13;16134511;19;129713;-58
2022/06/07 14:58:17;;;;;;;0.70;0.30;;;;;;;21.56;42.31;101128.75;16134679;19;131171;-56
2022/06/07 15:03:39;;;;;;;2.28;0.30;;;;;;;21.57;42.48;101126.81;16134208;19;129335;-56
2022/06/07 15:09:01;;;;;;;0.82;0.30;;;;;;;21.58;42.22;101129.34;16134854;19;129640;-55
2022/06/07 15:14:23;;;;;;;1.08;0.40;;;;;;;21.61;42.48;101133.53;16131440;19;129355;-56
2022/06/07 15:19:46;;;;;;;2.58;0.28;;;;;;;21.61;42.50;101134.38;16141747;19;130655;-55
2022/06/07 15:25:15;;;;;;;2.95;0.60;;;;;;;21.62;42.59;101140.78;16150965;19;129100;-56
2022/06/07 15:30:40;;;;;;;4.22;0.60;;;;;;;21.61;42.66;101134.38;16148389;19;129801;-57
2022/06/07 15:36:02;;;;;;;0.43;0.30;;;;;;;21.59;42.63;101135.75;16144695;19;130126;-54
2022/06/07 15:47:04;;;;;;;3.30;0.52;;;;;;;21.54;42.49;101130.97;16143959;19;128989;-56
2022/06/07 15:52:26;;;;;;;3.08;0.90;;;;;;;21.53;43.23;101129.28;16146536;19;129213;-56
2022/06/07 16:03:29;;;;;;;12.45;2.90;;;;;;;21.53;43.30;101132.06;16145169;19;129203;-55
2022/06/07 16:08:53;;;;;;;57.95;17.80;;;;;;;21.54;43.66;101122.63;16147861;19;129947;-55
2022/06/07 16:14:14;;;;;;;60.45;18.60;;;;;;;21.55;44.06;101126.22;16144156;19;129508;-54
2022/06/07 16:19:36;;;;;;;71.55;22.15;;;;;;;21.54;44.08;101116.22;16144689;19;129118;-54
2022/06/07 16:24:58;;;;;;;36.78;12.40;;;;;;;21.56;43.55;101111.19;16145181;19;129446;-55
2022/06/07 16:36:04;;;;;;;55.33;20.55;;;;;;;21.56;44.05;101122.34;16139416;19;129260;-54
2022/06/07 16:41:27;;;;;;;56.00;19.00;;;;;;;21.55;43.70;101129.88;16145220;19;129798;-54
2022/06/07 16:46:56;;;;;;;52.28;17.05;;;;;;;21.54;44.02;101127.34;16143397;19;129282;-54
2022/06/07 16:52:17;;;;;;;47.33;17.48;;;;;;;21.54;43.82;101127.34;16142448;19;129122;-55
2022/06/07 16:57:39;;;;;;;47.30;17.02;;;;;;;21.59;44.25;101127.38;16143426;19;129401;-55
2022/06/07 17:03:01;;;;;;;41.65;12.93;;;;;;;21.63;44.84;101123.00;16143037;19;129652;-54
2022/06/07 17:08:26;;;;;;;36.30;13.10;;;;;;;21.64;45.43;101122.72;16139653;19;130290;-55
2022/06/07 17:13:49;;;;;;;38.92;13.75;;;;;;;21.63;45.21;101125.78;16132214;19;130446;-56
2022/06/07 17:19:12;;;;;;;42.00;13.57;;;;;;;21.63;45.75;101118.25;16138845;19;129172;-54
2022/06/07 17:24:34;;;;;;;43.13;12.57;;;;;;;21.62;45.64;101116.56;16142425;19;129735;-57
2022/06/07 17:29:56;;;;;;;40.33;11.93;;;;;;;21.65;45.67;101132.75;16142305;19;129690;-57
2022/06/07 17:35:19;;;;;;;36.72;11.85;;;;;;;21.67;45.40;101138.03;16137271;19;129681;-57
2022/06/07 17:40:41;;;;;;;36.25;10.32;;;;;;;21.73;45.61;101137.00;16138129;19;129289;-57
2022/06/07 17:46:04;;;;;;;33.90;10.40;;;;;;;21.73;45.55;101130.59;16136278;19;129351;-57
2022/06/07 17:51:27;;;;;;;27.02;9.05;;;;;;;21.75;45.54;101128.38;16135076;19;130730;-57
2022/06/07 17:56:48;;;;;;;29.08;8.43;;;;;;;21.77;45.72;101132.59;16134151;19;128967;-58
2022/06/07 18:02:12;;;;;;;22.95;7.60;;;;;;;21.78;45.47;101128.72;16139499;19;130193;-56
2022/06/07 18:07:34;;;;;;;28.45;7.57;;;;;;;21.82;45.43;101129.84;16134540;19;129652;-59
2022/06/07 18:12:56;;;;;;;24.30;7.25;;;;;;;21.86;44.90;101130.16;16135273;19;128911;-57
2022/06/07 18:18:18;;;;;;;20.83;6.30;;;;;;;21.89;45.03;101148.31;16137993;19;129600;-57
2022/06/07 18:23:40;;;;;;;18.95;6.15;;;;;;;21.91;44.67;101160.03;16130470;19;129040;-56
2022/06/07 18:29:06;;;;;;;14.07;5.45;;;;;;;21.91;45.02;101158.09;16137669;19;129355;-56
2022/06/07 18:34:28;;;;;;;16.98;4.88;;;;;;;21.92;44.61;101154.19;16133905;19;129373;-57
2022/06/07 18:39:49;;;;;;;15.77;5.22;;;;;;;21.95;45.10;101155.59;16135195;19;130165;-59
2022/06/07 18:45:21;;;;;;;12.38;5.10;;;;;;;21.95;44.76;101150.88;16136585;19;129199;-56
2022/06/07 18:50:44;;;;;;;11.43;4.22;;;;;;;21.97;44.87;101153.41;16124264;19;131320;-54
2022/06/07 18:56:10;;;;;;;9.10;3.92;;;;;;;21.97;45.08;101158.97;16131565;19;129829;-58
2022/06/07 19:01:32;;;;;;;9.23;4.13;;;;;;;21.98;44.69;101155.09;16134211;19;129427;-55
2022/06/07 19:06:54;;;;;;;8.93;3.75;;;;;;;21.96;44.59;101157.28;16145899;19;129846;-56
2022/06/07 19:12:17;;;;;;;9.90;3.75;;;;;;;21.94;44.34;101153.91;16149118;19;129130;-55
2022/06/07 19:17:39;;;;;;;15.02;3.80;;;;;;;21.92;44.69;101150.56;16145706;19;130488;-58
2022/06/07 19:23:02;;;;;;;10.98;3.67;;;;;;;21.93;44.68;101157.81;16146518;19;129467;-56
2022/06/07 19:28:27;;;;;;;6.72;3.08;;;;;;;21.95;44.47;101152.81;16144549;19;129949;-57
2022/06/07 19:33:49;;;;;;;6.22;2.58;;;;;;;21.93;44.47;101153.09;16148350;19;130571;-55
2022/06/07 19:39:11;;;;;;;6.95;2.80;;;;;;;21.93;44.31;101144.75;16144681;19;130658;-55
2022/06/07 19:44:33;;;;;;;6.55;2.72;;;;;;;21.91;44.51;101140.53;16148104;19;129476;-55
2022/06/07 19:49:55;;;;;;;8.63;2.88;;;;;;;21.86;44.44;101141.31;16144856;19;129259;-54
2022/06/07 19:55:21;;;;;;;12.85;3.00;;;;;;;21.82;44.76;101135.44;16146782;19;129456;-57
2022/06/07 20:00:43;;;;;;;7.90;2.70;;;;;;;21.77;44.59;101146.53;16141733;19;129728;-56
2022/06/07 20:06:05;;;;;;;8.65;2.28;;;;;;;21.73;44.57;101147.28;16129635;19;129392;-55
2022/06/07 20:11:32;;;;;;;3.60;2.35;;;;;;;21.71;44.39;101150.34;16131293;19;130487;-55
2022/06/07 20:16:54;;;;;;;9.43;2.58;;;;;;;21.64;44.56;101145.00;16136438;19;129472;-55
2022/06/07 20:22:20;;;;;;;7.28;2.88;;;;;;;21.62;44.94;101135.22;16142085;19;129563;-55
2022/06/07 20:27:42;;;;;;;6.43;2.33;;;;;;;21.59;44.45;101146.88;16140081;19;130708;-55
2022/06/07 20:33:04;;;;;;;6.00;2.20;;;;;;;21.57;44.74;101143.50;16141514;19;129637;-53
2022/06/07 20:38:26;;;;;;;5.25;1.95;;;;;;;21.55;44.72;101140.13;16137653;19;130149;-55
2022/06/07 20:43:48;;;;;;;7.75;2.33;;;;;;;21.52;44.87;101141.50;16145984;19;130409;-55
2022/06/07 20:49:11;;;;;;;4.80;2.20;;;;;;;21.49;44.60;101142.88;16140836;19;130169;-55
2022/06/07 20:54:33;;;;;;;4.82;1.90;;;;;;;21.47;44.63;101150.63;16143490;19;129047;-55
2022/06/07 20:59:55;;;;;;;6.50;1.70;;;;;;;21.45;44.76;101133.34;16139977;19;133020;-55
2022/06/07 21:05:17;;;;;;;4.38;1.90;;;;;;;21.45;44.67;101135.28;16140676;19;129191;-55
2022/06/07 21:10:39;;;;;;;3.90;1.80;;;;;;;21.44;44.58;101139.16;16143406;19;130831;-53
2022/06/07 21:16:01;;;;;;;3.50;1.80;;;;;;;21.41;44.45;101136.91;16137243;19;129414;-56
2022/06/07 21:21:24;;;;;;;3.33;1.70;;;;;;;21.40;44.50;101127.72;16137981;19;129652;-51
2022/06/07 21:26:47;;;;;;;4.10;1.58;;;;;;;21.37;44.65;101126.28;16139273;19;130130;-55
2022/06/07 21:32:09;;;;;;;4.90;1.80;;;;;;;21.36;44.57;101129.34;16132108;19;130058;-55
2022/06/07 21:37:31;;;;;;;5.45;1.75;;;;;;;21.34;44.67;101128.75;16126067;19;130033;-56
2022/06/07 21:42:53;;;;;;;2.80;1.20;;;;;;;21.33;44.50;101115.94;16131700;19;130366;-55
2022/06/07 21:48:18;;;;;;;4.80;1.50;;;;;;;21.33;44.62;101113.16;16133173;19;129676;-54
2022/06/07 21:53:40;;;;;;;2.90;1.35;;;;;;;21.34;44.70;101109.28;16131618;19;131413;-55
2022/06/07 21:59:02;;;;;;;5.00;1.33;;;;;;;21.36;44.85;101113.47;16133060;19;130637;-54
2022/06/07 22:04:24;;;;;;;3.05;1.63;;;;;;;21.37;44.68;101105.97;16133503;19;129087;-54
2022/06/07 22:09:48;;;;;;;4.20;1.73;;;;;;;21.37;44.55;101105.97;16136679;19;130023;-56
2022/06/07 22:15:13;;;;;;;4.70;1.65;;;;;;;21.35;44.35;101097.03;16136640;19;133664;-55
2022/06/07 22:20:35;;;;;;;2.50;1.70;;;;;;;21.33;44.48;101091.75;16134305;19;129793;-55
2022/06/07 22:25:57;;;;;;;4.97;1.52;;;;;;;21.31;44.76;101084.75;16136758;19;129715;-53
2022/06/07 22:31:19;;;;;;;3.38;1.48;;;;;;;21.31;44.47;101081.94;16137311;19;131528;-54
2022/06/07 22:36:41;;;;;;;3.55;1.50;;;;;;;21.29;44.57;101073.06;16132542;19;129030;-54
2022/06/07 22:42:04;;;;;;;4.38;1.45;;;;;;;21.27;44.59;101061.34;16134316;19;129497;-56
2022/06/07 22:47:26;;;;;;;2.80;1.40;;;;;;;21.26;44.50;101066.03;16132569;19;130685;-55
2022/06/07 22:53:04;;;;;;;2.90;1.50;;;;;;;21.26;44.60;101048.53;16133515;19;129328;-52
2022/06/07 22:58:40;;;;;;;2.88;1.30;;;;;;;21.23;44.37;101049.91;16131122;19;130323;-54
2022/06/07 23:04:06;;;;;;;2.53;1.20;;;;;;;21.22;44.19;101043.47;16132676;19;129585;-54
2022/06/07 23:09:29;;;;;;;2.92;1.35;;;;;;;21.21;44.27;101032.63;16133224;19;129854;-54
2022/06/07 23:20:32;;;;;;;1.95;1.10;;;;;;;21.18;44.65;101033.97;16131417;19;129417;-55
2022/06/07 23:25:54;;;;;;;2.10;1.02;;;;;;;21.18;44.57;101031.19;16131852;19;129629;-56
2022/06/07 23:31:15;;;;;;;4.72;1.23;;;;;;;21.17;44.34;101035.06;16131644;19;131040;-55
2022/06/07 23:36:37;;;;;;;2.67;1.20;;;;;;;21.16;44.46;101033.41;16126335;19;130357;-56
2022/06/07 23:42:00;;;;;;;2.35;1.20;;;;;;;21.15;44.18;101022.53;16144893;19;129399;-54
2022/06/07 23:47:37;;;;;;;3.30;1.10;;;;;;;21.14;44.34;101023.63;16144947;19;128925;-55
2022/06/07 23:53:08;;;;;;;2.78;1.10;;;;;;;21.13;44.34;101003.31;16138421;19;129593;-56
2022/06/07 23:58:35;;;;;;;3.40;1.08;;;;;;;21.12;44.20;101004.41;16140845;19;129072;-55
